sensor_id;sensor_type;location;lat;lon;timestamp;temperature;humidity
44477;DHT22;30180;44.788;10.366;2023-06-26T00:00:10;25.30;62.70
44477;DHT22;30180;44.788;10.366;2023-06-26T00:05:07;25.30;62.80
44477;DHT22;30180;44.788;10.366;2023-06-26T00:07:36;25.30;62.80
44477;DHT22;30180;44.788;10.366;2023-06-26T00:10:05;25.20;62.70
44477;DHT22;30180;44.788;10.366;2023-06-26T00:12:34;25.20;62.70
44477;DHT22;30180;44.788;10.366;2023-06-26T00:15:03;25.30;62.80
44477;DHT22;30180;44.788;10.366;2023-06-26T00:17:32;25.30;62.80
44477;DHT22;30180;44.788;10.366;2023-06-26T00:20:04;25.30;62.80
44477;DHT22;30180;44.788;10.366;2023-06-26T00:22:33;25.30;62.80
44477;DHT22;30180;44.788;10.366;2023-06-26T00:25:01;25.30;62.80
44477;DHT22;30180;44.788;10.366;2023-06-26T00:27:30;25.30;62.80
44477;DHT22;30180;44.788;10.366;2023-06-26T00:30:00;25.30;62.80
44477;DHT22;30180;44.788;10.366;2023-06-26T00:32:28;25.30;62.80
44477;DHT22;30180;44.788;10.366;2023-06-26T00:34:56;25.30;62.80
44477;DHT22;30180;44.788;10.366;2023-06-26T00:37:25;25.30;62.80
44477;DHT22;30180;44.788;10.366;2023-06-26T00:39:53;25.30;62.80
44477;DHT22;30180;44.788;10.366;2023-06-26T00:42:21;25.30;62.80
44477;DHT22;30180;44.788;10.366;2023-06-26T00:44:49;25.30;62.80
44477;DHT22;30180;44.788;10.366;2023-06-26T00:47:19;25.30;62.80
44477;DHT22;30180;44.788;10.366;2023-06-26T00:49:47;25.30;62.80
44477;DHT22;30180;44.788;10.366;2023-06-26T00:52:16;25.30;62.80
44477;DHT22;30180;44.788;10.366;2023-06-26T00:54:44;25.20;62.80
44477;DHT22;30180;44.788;10.366;2023-06-26T00:57:13;25.30;62.90
44477;DHT22;30180;44.788;10.366;2023-06-26T00:59:41;25.30;62.90
44477;DHT22;30180;44.788;10.366;2023-06-26T01:02:09;25.30;62.90
44477;DHT22;30180;44.788;10.366;2023-06-26T01:04:39;25.30;62.90
44477;DHT22;30180;44.788;10.366;2023-06-26T01:07:14;25.30;62.90
44477;DHT22;30180;44.788;10.366;2023-06-26T01:09:45;25.30;62.90
44477;DHT22;30180;44.788;10.366;2023-06-26T01:12:14;25.20;62.80
44477;DHT22;30180;44.788;10.366;2023-06-26T01:14:42;25.30;62.90
44477;DHT22;30180;44.788;10.366;2023-06-26T01:17:11;25.30;62.90
44477;DHT22;30180;44.788;10.366;2023-06-26T01:19:44;25.30;62.90
44477;DHT22;30180;44.788;10.366;2023-06-26T01:22:18;25.30;62.90
44477;DHT22;30180;44.788;10.366;2023-06-26T01:24:56;25.30;62.90
44477;DHT22;30180;44.788;10.366;2023-06-26T01:27:32;25.30;63.00
44477;DHT22;30180;44.788;10.366;2023-06-26T01:30:03;25.30;62.90
44477;DHT22;30180;44.788;10.366;2023-06-26T01:32:31;25.30;62.90
44477;DHT22;30180;44.788;10.366;2023-06-26T01:35:02;25.30;63.60
44477;DHT22;30180;44.788;10.366;2023-06-26T01:37:30;25.30;63.00
44477;DHT22;30180;44.788;10.366;2023-06-26T01:39:58;25.30;63.00
44477;DHT22;30180;44.788;10.366;2023-06-26T01:42:27;25.30;63.00
44477;DHT22;30180;44.788;10.366;2023-06-26T01:44:57;25.20;63.50
44477;DHT22;30180;44.788;10.366;2023-06-26T01:47:28;25.30;63.00
44477;DHT22;30180;44.788;10.366;2023-06-26T01:50:02;25.30;63.00
44477;DHT22;30180;44.788;10.366;2023-06-26T01:52:38;25.30;63.60
44477;DHT22;30180;44.788;10.366;2023-06-26T01:55:15;25.20;62.90
44477;DHT22;30180;44.788;10.366;2023-06-26T01:57:47;25.30;63.00
44477;DHT22;30180;44.788;10.366;2023-06-26T02:00:19;25.30;63.00
44477;DHT22;30180;44.788;10.366;2023-06-26T02:02:48;25.30;63.00
44477;DHT22;30180;44.788;10.366;2023-06-26T02:05:16;25.30;63.00
44477;DHT22;30180;44.788;10.366;2023-06-26T02:07:44;25.30;63.00
44477;DHT22;30180;44.788;10.366;2023-06-26T02:10:12;25.30;63.00
44477;DHT22;30180;44.788;10.366;2023-06-26T02:12:41;25.30;63.00
44477;DHT22;30180;44.788;10.366;2023-06-26T02:15:10;25.30;63.00
44477;DHT22;30180;44.788;10.366;2023-06-26T02:17:40;25.30;63.00
44477;DHT22;30180;44.788;10.366;2023-06-26T02:20:08;25.20;63.00
44477;DHT22;30180;44.788;10.366;2023-06-26T02:22:37;25.30;63.00
44477;DHT22;30180;44.788;10.366;2023-06-26T02:25:06;25.20;63.00
44477;DHT22;30180;44.788;10.366;2023-06-26T02:27:34;25.30;63.00
44477;DHT22;30180;44.788;10.366;2023-06-26T02:30:03;25.30;63.00
44477;DHT22;30180;44.788;10.366;2023-06-26T02:32:31;25.30;63.10
44477;DHT22;30180;44.788;10.366;2023-06-26T02:35:01;25.30;63.00
44477;DHT22;30180;44.788;10.366;2023-06-26T02:37:29;25.30;63.10
44477;DHT22;30180;44.788;10.366;2023-06-26T02:39:58;25.30;63.10
44477;DHT22;30180;44.788;10.366;2023-06-26T02:42:26;25.30;63.10
44477;DHT22;30180;44.788;10.366;2023-06-26T02:44:54;25.30;63.10
44477;DHT22;30180;44.788;10.366;2023-06-26T02:47:23;25.30;63.10
44477;DHT22;30180;44.788;10.366;2023-06-26T02:49:51;25.30;63.10
44477;DHT22;30180;44.788;10.366;2023-06-26T02:52:21;25.20;63.00
44477;DHT22;30180;44.788;10.366;2023-06-26T02:54:49;25.30;63.10
44477;DHT22;30180;44.788;10.366;2023-06-26T02:57:18;25.30;63.10
44477;DHT22;30180;44.788;10.366;2023-06-26T02:59:46;25.30;63.10
44477;DHT22;30180;44.788;10.366;2023-06-26T03:02:14;25.30;63.10
44477;DHT22;30180;44.788;10.366;2023-06-26T03:04:42;25.30;63.10
44477;DHT22;30180;44.788;10.366;2023-06-26T03:07:11;25.30;63.10
44477;DHT22;30180;44.788;10.366;2023-06-26T03:09:41;25.30;63.10
44477;DHT22;30180;44.788;10.366;2023-06-26T03:12:09;25.30;63.10
44477;DHT22;30180;44.788;10.366;2023-06-26T03:14:37;25.30;63.10
44477;DHT22;30180;44.788;10.366;2023-06-26T03:17:06;25.20;63.00
44477;DHT22;30180;44.788;10.366;2023-06-26T03:19:34;25.20;63.00
44477;DHT22;30180;44.788;10.366;2023-06-26T03:22:02;25.30;63.20
44477;DHT22;30180;44.788;10.366;2023-06-26T03:24:31;25.30;63.10
44477;DHT22;30180;44.788;10.366;2023-06-26T03:27:02;25.20;63.10
44477;DHT22;30180;44.788;10.366;2023-06-26T03:29:30;25.20;63.10
44477;DHT22;30180;44.788;10.366;2023-06-26T03:31:58;25.20;63.10
44477;DHT22;30180;44.788;10.366;2023-06-26T03:34:26;25.20;63.10
44477;DHT22;30180;44.788;10.366;2023-06-26T03:36:54;25.20;63.10
44477;DHT22;30180;44.788;10.366;2023-06-26T03:39:23;25.30;63.10
44477;DHT22;30180;44.788;10.366;2023-06-26T03:41:51;25.20;63.00
44477;DHT22;30180;44.788;10.366;2023-06-26T03:44:22;25.20;63.00
44477;DHT22;30180;44.788;10.366;2023-06-26T03:46:50;25.20;63.10
44477;DHT22;30180;44.788;10.366;2023-06-26T03:49:18;25.20;63.10
44477;DHT22;30180;44.788;10.366;2023-06-26T03:51:47;25.20;63.10
44477;DHT22;30180;44.788;10.366;2023-06-26T03:54:15;25.20;63.10
44477;DHT22;30180;44.788;10.366;2023-06-26T03:56:43;25.20;63.10
44477;DHT22;30180;44.788;10.366;2023-06-26T03:59:12;25.20;63.10
44477;DHT22;30180;44.788;10.366;2023-06-26T04:01:41;25.20;63.10
44477;DHT22;30180;44.788;10.366;2023-06-26T04:04:10;25.20;63.10
44477;DHT22;30180;44.788;10.366;2023-06-26T04:06:38;25.20;63.10
44477;DHT22;30180;44.788;10.366;2023-06-26T04:09:06;25.20;63.10
44477;DHT22;30180;44.788;10.366;2023-06-26T04:11:34;25.20;63.10
44477;DHT22;30180;44.788;10.366;2023-06-26T04:14:03;25.20;63.10
44477;DHT22;30180;44.788;10.366;2023-06-26T04:16:31;25.20;63.10
44477;DHT22;30180;44.788;10.366;2023-06-26T04:19:00;25.20;63.10
44477;DHT22;30180;44.788;10.366;2023-06-26T04:21:29;25.20;63.10
44477;DHT22;30180;44.788;10.366;2023-06-26T04:23:58;25.20;63.10
44477;DHT22;30180;44.788;10.366;2023-06-26T04:26:26;25.20;63.10
44477;DHT22;30180;44.788;10.366;2023-06-26T04:28:54;25.20;63.10
44477;DHT22;30180;44.788;10.366;2023-06-26T04:31:22;25.20;63.10
44477;DHT22;30180;44.788;10.366;2023-06-26T04:33:51;25.20;63.10
44477;DHT22;30180;44.788;10.366;2023-06-26T04:36:23;25.20;63.10
44477;DHT22;30180;44.788;10.366;2023-06-26T04:38:55;25.20;63.10
44477;DHT22;30180;44.788;10.366;2023-06-26T04:41:23;25.20;63.10
44477;DHT22;30180;44.788;10.366;2023-06-26T04:43:52;25.20;63.20
44477;DHT22;30180;44.788;10.366;2023-06-26T04:46:20;25.20;63.10
44477;DHT22;30180;44.788;10.366;2023-06-26T04:48:48;25.20;63.10
44477;DHT22;30180;44.788;10.366;2023-06-26T04:51:17;25.20;63.10
44477;DHT22;30180;44.788;10.366;2023-06-26T04:53:49;25.20;63.20
44477;DHT22;30180;44.788;10.366;2023-06-26T04:56:17;25.20;63.20
44477;DHT22;30180;44.788;10.366;2023-06-26T04:58:45;25.20;63.10
44477;DHT22;30180;44.788;10.366;2023-06-26T05:01:14;25.20;63.10
44477;DHT22;30180;44.788;10.366;2023-06-26T05:03:42;25.20;63.20
44477;DHT22;30180;44.788;10.366;2023-06-26T05:06:12;25.20;63.20
44477;DHT22;30180;44.788;10.366;2023-06-26T05:08:40;25.20;63.20
44477;DHT22;30180;44.788;10.366;2023-06-26T05:11:10;25.20;63.20
44477;DHT22;30180;44.788;10.366;2023-06-26T05:13:38;25.20;63.20
44477;DHT22;30180;44.788;10.366;2023-06-26T05:16:08;25.20;63.20
44477;DHT22;30180;44.788;10.366;2023-06-26T05:18:37;25.20;63.20
44477;DHT22;30180;44.788;10.366;2023-06-26T05:21:05;25.20;63.20
44477;DHT22;30180;44.788;10.366;2023-06-26T05:23:34;25.20;63.80
44477;DHT22;30180;44.788;10.366;2023-06-26T05:26:03;25.20;63.20
44477;DHT22;30180;44.788;10.366;2023-06-26T05:28:33;25.20;63.20
44477;DHT22;30180;44.788;10.366;2023-06-26T05:31:03;25.20;63.20
44477;DHT22;30180;44.788;10.366;2023-06-26T05:33:35;25.20;63.20
44477;DHT22;30180;44.788;10.366;2023-06-26T05:36:04;25.20;63.20
44477;DHT22;30180;44.788;10.366;2023-06-26T05:38:34;25.20;63.20
44477;DHT22;30180;44.788;10.366;2023-06-26T05:41:03;25.20;63.20
44477;DHT22;30180;44.788;10.366;2023-06-26T05:43:32;25.20;63.20
44477;DHT22;30180;44.788;10.366;2023-06-26T05:46:01;25.20;63.20
44477;DHT22;30180;44.788;10.366;2023-06-26T05:48:29;25.20;63.20
44477;DHT22;30180;44.788;10.366;2023-06-26T05:50:58;25.20;63.80
44477;DHT22;30180;44.788;10.366;2023-06-26T05:53:27;25.20;63.20
44477;DHT22;30180;44.788;10.366;2023-06-26T05:55:57;25.20;63.20
44477;DHT22;30180;44.788;10.366;2023-06-26T05:58:26;25.20;63.20
44477;DHT22;30180;44.788;10.366;2023-06-26T06:00:56;25.20;63.20
44477;DHT22;30180;44.788;10.366;2023-06-26T06:03:25;25.20;63.20
44477;DHT22;30180;44.788;10.366;2023-06-26T06:05:53;25.20;63.20
44477;DHT22;30180;44.788;10.366;2023-06-26T06:08:21;25.20;63.20
44477;DHT22;30180;44.788;10.366;2023-06-26T06:10:50;25.20;63.20
44477;DHT22;30180;44.788;10.366;2023-06-26T06:13:18;25.20;63.20
44477;DHT22;30180;44.788;10.366;2023-06-26T06:15:46;25.20;63.20
44477;DHT22;30180;44.788;10.366;2023-06-26T06:18:16;25.20;63.20
44477;DHT22;30180;44.788;10.366;2023-06-26T06:20:44;25.20;63.20
44477;DHT22;30180;44.788;10.366;2023-06-26T06:23:12;25.20;63.10
44477;DHT22;30180;44.788;10.366;2023-06-26T06:25:40;25.20;63.10
44477;DHT22;30180;44.788;10.366;2023-06-26T06:28:09;25.20;63.00
44477;DHT22;30180;44.788;10.366;2023-06-26T06:30:37;25.20;63.10
44477;DHT22;30180;44.788;10.366;2023-06-26T06:33:12;25.10;63.00
44477;DHT22;30180;44.788;10.366;2023-06-26T06:35:41;25.10;63.00
44477;DHT22;30180;44.788;10.366;2023-06-26T06:38:10;25.10;63.10
44477;DHT22;30180;44.788;10.366;2023-06-26T06:40:38;25.10;63.10
44477;DHT22;30180;44.788;10.366;2023-06-26T06:43:07;25.10;63.10
44477;DHT22;30180;44.788;10.366;2023-06-26T06:45:35;25.10;63.00
44477;DHT22;30180;44.788;10.366;2023-06-26T06:48:04;25.10;63.10
44477;DHT22;30180;44.788;10.366;2023-06-26T06:50:33;25.10;63.10
44477;DHT22;30180;44.788;10.366;2023-06-26T06:53:02;25.10;63.10
44477;DHT22;30180;44.788;10.366;2023-06-26T06:55:30;25.10;63.10
44477;DHT22;30180;44.788;10.366;2023-06-26T06:57:58;25.10;63.10
44477;DHT22;30180;44.788;10.366;2023-06-26T07:00:30;25.10;63.10
44477;DHT22;30180;44.788;10.366;2023-06-26T07:02:58;25.10;63.10
44477;DHT22;30180;44.788;10.366;2023-06-26T07:05:27;25.10;63.10
44477;DHT22;30180;44.788;10.366;2023-06-26T07:07:55;25.10;63.10
44477;DHT22;30180;44.788;10.366;2023-06-26T07:10:29;25.10;63.10
44477;DHT22;30180;44.788;10.366;2023-06-26T07:12:57;25.10;63.10
44477;DHT22;30180;44.788;10.366;2023-06-26T07:15:26;25.10;63.10
44477;DHT22;30180;44.788;10.366;2023-06-26T07:17:54;25.20;63.20
44477;DHT22;30180;44.788;10.366;2023-06-26T07:20:23;25.20;63.20
44477;DHT22;30180;44.788;10.366;2023-06-26T07:22:52;25.20;63.10
44477;DHT22;30180;44.788;10.366;2023-06-26T07:25:20;25.20;63.20
44477;DHT22;30180;44.788;10.366;2023-06-26T07:27:49;25.20;63.10
44477;DHT22;30180;44.788;10.366;2023-06-26T07:30:18;25.20;63.10
44477;DHT22;30180;44.788;10.366;2023-06-26T07:32:46;25.20;63.10
44477;DHT22;30180;44.788;10.366;2023-06-26T07:35:15;25.20;63.10
44477;DHT22;30180;44.788;10.366;2023-06-26T07:37:44;25.20;63.10
44477;DHT22;30180;44.788;10.366;2023-06-26T07:40:12;25.20;63.10
44477;DHT22;30180;44.788;10.366;2023-06-26T07:42:40;25.20;63.10
44477;DHT22;30180;44.788;10.366;2023-06-26T07:45:10;25.20;63.70
44477;DHT22;30180;44.788;10.366;2023-06-26T07:47:39;25.20;63.10
44477;DHT22;30180;44.788;10.366;2023-06-26T07:50:08;25.20;63.10
44477;DHT22;30180;44.788;10.366;2023-06-26T07:52:37;25.20;63.00
44477;DHT22;30180;44.788;10.366;2023-06-26T07:55:05;25.20;63.00
44477;DHT22;30180;44.788;10.366;2023-06-26T07:57:34;25.20;63.00
44477;DHT22;30180;44.788;10.366;2023-06-26T08:00:03;25.20;63.00
44477;DHT22;30180;44.788;10.366;2023-06-26T08:02:35;25.20;63.00
44477;DHT22;30180;44.788;10.366;2023-06-26T08:05:03;25.20;63.00
44477;DHT22;30180;44.788;10.366;2023-06-26T08:07:32;25.20;63.00
44477;DHT22;30180;44.788;10.366;2023-06-26T08:10:00;25.20;63.00
44477;DHT22;30180;44.788;10.366;2023-06-26T08:12:28;25.20;63.00
44477;DHT22;30180;44.788;10.366;2023-06-26T08:14:56;25.20;63.00
44477;DHT22;30180;44.788;10.366;2023-06-26T08:17:25;25.20;63.00
44477;DHT22;30180;44.788;10.366;2023-06-26T08:19:57;25.20;63.00
44477;DHT22;30180;44.788;10.366;2023-06-26T08:22:25;25.20;63.00
44477;DHT22;30180;44.788;10.366;2023-06-26T08:24:54;25.20;63.00
44477;DHT22;30180;44.788;10.366;2023-06-26T08:27:22;25.20;63.00
44477;DHT22;30180;44.788;10.366;2023-06-26T08:29:50;25.20;63.00
44477;DHT22;30180;44.788;10.366;2023-06-26T08:32:18;25.20;62.90
44477;DHT22;30180;44.788;10.366;2023-06-26T08:34:47;25.20;62.90
44477;DHT22;30180;44.788;10.366;2023-06-26T08:37:16;25.20;62.90
44477;DHT22;30180;44.788;10.366;2023-06-26T08:39:45;25.20;62.90
44477;DHT22;30180;44.788;10.366;2023-06-26T08:42:13;25.20;62.90
44477;DHT22;30180;44.788;10.366;2023-06-26T08:44:41;25.20;62.90
44477;DHT22;30180;44.788;10.366;2023-06-26T08:47:28;25.20;62.90
44477;DHT22;30180;44.788;10.366;2023-06-26T08:50:04;25.30;63.00
44477;DHT22;30180;44.788;10.366;2023-06-26T08:52:36;25.20;62.90
44477;DHT22;30180;44.788;10.366;2023-06-26T08:55:08;25.20;63.50
44477;DHT22;30180;44.788;10.366;2023-06-26T08:57:37;25.20;62.90
44477;DHT22;30180;44.788;10.366;2023-06-26T09:00:08;25.20;62.90
44477;DHT22;30180;44.788;10.366;2023-06-26T09:02:37;25.20;62.90
44477;DHT22;30180;44.788;10.366;2023-06-26T09:05:08;25.20;62.80
44477;DHT22;30180;44.788;10.366;2023-06-26T09:07:38;25.20;62.80
44477;DHT22;30180;44.788;10.366;2023-06-26T09:10:07;25.20;62.80
44477;DHT22;30180;44.788;10.366;2023-06-26T09:12:37;25.20;62.80
44477;DHT22;30180;44.788;10.366;2023-06-26T09:15:06;25.20;62.80
44477;DHT22;30180;44.788;10.366;2023-06-26T09:17:39;25.20;62.80
44477;DHT22;30180;44.788;10.366;2023-06-26T09:20:09;25.20;62.80
44477;DHT22;30180;44.788;10.366;2023-06-26T09:22:43;25.20;62.80
44477;DHT22;30180;44.788;10.366;2023-06-26T09:25:15;25.20;62.80
44477;DHT22;30180;44.788;10.366;2023-06-26T09:27:45;25.20;62.80
44477;DHT22;30180;44.788;10.366;2023-06-26T09:30:17;25.20;62.80
44477;DHT22;30180;44.788;10.366;2023-06-26T09:32:46;25.20;62.80
44477;DHT22;30180;44.788;10.366;2023-06-26T09:35:14;25.20;62.70
44477;DHT22;30180;44.788;10.366;2023-06-26T09:37:44;25.20;62.70
44477;DHT22;30180;44.788;10.366;2023-06-26T09:40:13;25.20;62.80
44477;DHT22;30180;44.788;10.366;2023-06-26T09:42:42;25.20;62.70
44477;DHT22;30180;44.788;10.366;2023-06-26T09:45:18;25.20;62.70
44477;DHT22;30180;44.788;10.366;2023-06-26T09:47:47;25.20;62.70
44477;DHT22;30180;44.788;10.366;2023-06-26T09:50:22;25.20;62.70
44477;DHT22;30180;44.788;10.366;2023-06-26T09:52:55;25.20;62.60
44477;DHT22;30180;44.788;10.366;2023-06-26T09:55:24;25.20;62.70
44477;DHT22;30180;44.788;10.366;2023-06-26T09:57:56;25.20;62.60
44477;DHT22;30180;44.788;10.366;2023-06-26T10:00:30;25.20;62.60
44477;DHT22;30180;44.788;10.366;2023-06-26T10:02:59;25.20;62.60
44477;DHT22;30180;44.788;10.366;2023-06-26T10:05:27;25.20;62.60
44477;DHT22;30180;44.788;10.366;2023-06-26T10:07:58;25.20;62.60
44477;DHT22;30180;44.788;10.366;2023-06-26T10:10:28;25.20;62.50
44477;DHT22;30180;44.788;10.366;2023-06-26T10:13:00;25.20;62.50
44477;DHT22;30180;44.788;10.366;2023-06-26T10:15:32;25.20;62.50
44477;DHT22;30180;44.788;10.366;2023-06-26T10:18:02;25.20;62.50
44477;DHT22;30180;44.788;10.366;2023-06-26T10:20:31;25.20;62.50
44477;DHT22;30180;44.788;10.366;2023-06-26T10:23:02;25.20;62.50
44477;DHT22;30180;44.788;10.366;2023-06-26T10:25:31;25.20;62.50
44477;DHT22;30180;44.788;10.366;2023-06-26T10:28:01;25.20;62.50
44477;DHT22;30180;44.788;10.366;2023-06-26T10:30:34;25.20;62.40
44477;DHT22;30180;44.788;10.366;2023-06-26T10:33:04;25.20;62.40
44477;DHT22;30180;44.788;10.366;2023-06-26T10:35:32;25.20;62.40
44477;DHT22;30180;44.788;10.366;2023-06-26T10:38:03;25.20;62.40
44477;DHT22;30180;44.788;10.366;2023-06-26T10:40:41;25.20;62.40
44477;DHT22;30180;44.788;10.366;2023-06-26T10:43:10;25.20;62.40
44477;DHT22;30180;44.788;10.366;2023-06-26T10:45:43;25.20;62.40
44477;DHT22;30180;44.788;10.366;2023-06-26T10:48:15;25.20;62.30
44477;DHT22;30180;44.788;10.366;2023-06-26T10:50:44;25.20;62.30
44477;DHT22;30180;44.788;10.366;2023-06-26T10:53:23;25.20;62.30
44477;DHT22;30180;44.788;10.366;2023-06-26T10:55:59;25.20;62.30
44477;DHT22;30180;44.788;10.366;2023-06-26T10:58:34;25.20;62.30
44477;DHT22;30180;44.788;10.366;2023-06-26T11:01:16;25.20;62.30
44477;DHT22;30180;44.788;10.366;2023-06-26T11:03:46;25.20;62.30
44477;DHT22;30180;44.788;10.366;2023-06-26T11:06:19;25.20;62.20
44477;DHT22;30180;44.788;10.366;2023-06-26T11:08:50;25.20;62.30
44477;DHT22;30180;44.788;10.366;2023-06-26T11:11:21;25.20;62.20
44477;DHT22;30180;44.788;10.366;2023-06-26T11:13:50;25.20;62.20
44477;DHT22;30180;44.788;10.366;2023-06-26T11:16:18;25.20;62.20
44477;DHT22;30180;44.788;10.366;2023-06-26T11:18:47;25.20;62.20
44477;DHT22;30180;44.788;10.366;2023-06-26T11:21:15;25.20;62.20
44477;DHT22;30180;44.788;10.366;2023-06-26T11:23:45;25.20;62.20
44477;DHT22;30180;44.788;10.366;2023-06-26T11:26:18;25.20;62.20
44477;DHT22;30180;44.788;10.366;2023-06-26T11:28:49;25.20;62.20
44477;DHT22;30180;44.788;10.366;2023-06-26T11:31:25;25.20;62.20
44477;DHT22;30180;44.788;10.366;2023-06-26T11:33:53;25.20;62.20
44477;DHT22;30180;44.788;10.366;2023-06-26T11:36:24;25.20;62.20
44477;DHT22;30180;44.788;10.366;2023-06-26T11:38:53;25.20;62.20
44477;DHT22;30180;44.788;10.366;2023-06-26T11:41:25;25.20;62.20
44477;DHT22;30180;44.788;10.366;2023-06-26T11:43:54;25.20;62.20
44477;DHT22;30180;44.788;10.366;2023-06-26T11:46:23;25.20;62.20
44477;DHT22;30180;44.788;10.366;2023-06-26T11:48:51;25.20;62.20
44477;DHT22;30180;44.788;10.366;2023-06-26T11:51:20;25.20;62.10
44477;DHT22;30180;44.788;10.366;2023-06-26T11:53:49;25.20;62.20
44477;DHT22;30180;44.788;10.366;2023-06-26T11:56:17;25.20;62.20
44477;DHT22;30180;44.788;10.366;2023-06-26T11:58:57;25.20;62.20
44477;DHT22;30180;44.788;10.366;2023-06-26T12:01:30;25.20;62.20
44477;DHT22;30180;44.788;10.366;2023-06-26T12:04:00;25.20;62.20
44477;DHT22;30180;44.788;10.366;2023-06-26T12:06:30;25.20;62.20
44477;DHT22;30180;44.788;10.366;2023-06-26T12:08:59;25.20;62.20
44477;DHT22;30180;44.788;10.366;2023-06-26T12:11:30;25.20;62.20
44477;DHT22;30180;44.788;10.366;2023-06-26T12:14:00;25.30;62.30
44477;DHT22;30180;44.788;10.366;2023-06-26T12:16:30;25.20;62.20
44477;DHT22;30180;44.788;10.366;2023-06-26T12:18:58;25.20;62.20
44477;DHT22;30180;44.788;10.366;2023-06-26T12:21:44;25.30;62.20
44477;DHT22;30180;44.788;10.366;2023-06-26T12:24:14;25.20;62.20
44477;DHT22;30180;44.788;10.366;2023-06-26T12:26:44;25.20;62.20
44477;DHT22;30180;44.788;10.366;2023-06-26T12:29:17;25.20;62.20
44477;DHT22;30180;44.788;10.366;2023-06-26T12:31:49;25.20;62.20
44477;DHT22;30180;44.788;10.366;2023-06-26T12:34:19;25.20;62.20
44477;DHT22;30180;44.788;10.366;2023-06-26T12:36:48;25.20;62.20
44477;DHT22;30180;44.788;10.366;2023-06-26T12:39:17;25.20;62.20
44477;DHT22;30180;44.788;10.366;2023-06-26T12:41:47;25.20;62.20
44477;DHT22;30180;44.788;10.366;2023-06-26T12:44:21;25.20;62.20
44477;DHT22;30180;44.788;10.366;2023-06-26T12:46:53;25.20;62.20
44477;DHT22;30180;44.788;10.366;2023-06-26T12:49:29;25.20;62.20
44477;DHT22;30180;44.788;10.366;2023-06-26T12:51:58;25.20;62.20
44477;DHT22;30180;44.788;10.366;2023-06-26T12:54:27;25.20;62.20
44477;DHT22;30180;44.788;10.366;2023-06-26T12:56:56;25.20;62.20
44477;DHT22;30180;44.788;10.366;2023-06-26T12:59:26;25.20;62.20
44477;DHT22;30180;44.788;10.366;2023-06-26T13:01:54;25.20;62.20
44477;DHT22;30180;44.788;10.366;2023-06-26T13:04:23;25.30;62.30
44477;DHT22;30180;44.788;10.366;2023-06-26T13:06:51;25.20;62.20
44477;DHT22;30180;44.788;10.366;2023-06-26T13:09:22;25.20;62.20
44477;DHT22;30180;44.788;10.366;2023-06-26T13:11:51;25.20;62.20
44477;DHT22;30180;44.788;10.366;2023-06-26T13:14:19;25.30;62.40
44477;DHT22;30180;44.788;10.366;2023-06-26T13:16:49;25.20;62.30
44477;DHT22;30180;44.788;10.366;2023-06-26T13:19:17;25.20;62.30
44477;DHT22;30180;44.788;10.366;2023-06-26T13:21:45;25.30;62.40
44477;DHT22;30180;44.788;10.366;2023-06-26T13:24:13;25.20;62.30
44477;DHT22;30180;44.788;10.366;2023-06-26T13:26:42;25.30;62.40
44477;DHT22;30180;44.788;10.366;2023-06-26T13:29:11;25.20;62.30
44477;DHT22;30180;44.788;10.366;2023-06-26T13:31:39;25.30;62.40
44477;DHT22;30180;44.788;10.366;2023-06-26T13:34:09;25.30;62.40
44477;DHT22;30180;44.788;10.366;2023-06-26T13:36:47;25.30;62.40
44477;DHT22;30180;44.788;10.366;2023-06-26T13:39:15;25.30;62.40
44477;DHT22;30180;44.788;10.366;2023-06-26T13:41:43;25.30;62.40
44477;DHT22;30180;44.788;10.366;2023-06-26T13:44:12;25.30;62.40
44477;DHT22;30180;44.788;10.366;2023-06-26T13:47:00;25.30;62.40
44477;DHT22;30180;44.788;10.366;2023-06-26T13:49:30;25.30;62.40
44477;DHT22;30180;44.788;10.366;2023-06-26T13:51:58;25.20;62.40
44477;DHT22;30180;44.788;10.366;2023-06-26T13:54:26;25.30;62.50
44477;DHT22;30180;44.788;10.366;2023-06-26T13:56:55;25.30;62.50
44477;DHT22;30180;44.788;10.366;2023-06-26T13:59:25;25.30;62.50
44477;DHT22;30180;44.788;10.366;2023-06-26T14:01:54;25.30;62.50
44477;DHT22;30180;44.788;10.366;2023-06-26T14:04:22;25.30;62.50
44477;DHT22;30180;44.788;10.366;2023-06-26T14:06:52;25.30;62.50
44477;DHT22;30180;44.788;10.366;2023-06-26T14:09:20;25.30;62.50
44477;DHT22;30180;44.788;10.366;2023-06-26T14:11:49;25.30;62.50
44477;DHT22;30180;44.788;10.366;2023-06-26T14:14:17;25.30;62.50
44477;DHT22;30180;44.788;10.366;2023-06-26T14:16:45;25.30;62.50
44477;DHT22;30180;44.788;10.366;2023-06-26T14:19:16;25.30;62.50
44477;DHT22;30180;44.788;10.366;2023-06-26T14:21:45;25.30;62.50
44477;DHT22;30180;44.788;10.366;2023-06-26T14:24:15;25.30;62.50
44477;DHT22;30180;44.788;10.366;2023-06-26T14:26:43;25.30;62.50
44477;DHT22;30180;44.788;10.366;2023-06-26T14:29:11;25.30;62.50
44477;DHT22;30180;44.788;10.366;2023-06-26T14:31:39;25.30;62.60
44477;DHT22;30180;44.788;10.366;2023-06-26T14:34:08;25.30;62.50
44477;DHT22;30180;44.788;10.366;2023-06-26T14:36:36;25.30;62.50
44477;DHT22;30180;44.788;10.366;2023-06-26T14:39:04;25.30;62.60
44477;DHT22;30180;44.788;10.366;2023-06-26T14:41:34;25.20;62.50
44477;DHT22;30180;44.788;10.366;2023-06-26T14:44:03;25.30;62.60
44477;DHT22;30180;44.788;10.366;2023-06-26T14:46:32;25.30;62.60
44477;DHT22;30180;44.788;10.366;2023-06-26T14:49:01;25.30;62.60
44477;DHT22;30180;44.788;10.366;2023-06-26T14:51:29;25.30;62.60
44477;DHT22;30180;44.788;10.366;2023-06-26T14:53:57;25.30;62.60
44477;DHT22;30180;44.788;10.366;2023-06-26T14:56:25;25.30;62.60
44477;DHT22;30180;44.788;10.366;2023-06-26T14:58:55;25.30;62.70
44477;DHT22;30180;44.788;10.366;2023-06-26T15:01:23;25.30;62.70
44477;DHT22;30180;44.788;10.366;2023-06-26T15:03:51;25.30;62.70
44477;DHT22;30180;44.788;10.366;2023-06-26T15:06:20;25.30;62.70
44477;DHT22;30180;44.788;10.366;2023-06-26T15:08:48;25.30;62.70
44477;DHT22;30180;44.788;10.366;2023-06-26T15:11:17;25.30;62.70
44477;DHT22;30180;44.788;10.366;2023-06-26T15:13:46;25.30;62.70
44477;DHT22;30180;44.788;10.366;2023-06-26T15:16:16;25.30;62.70
44477;DHT22;30180;44.788;10.366;2023-06-26T15:18:47;25.30;62.70
44477;DHT22;30180;44.788;10.366;2023-06-26T15:21:16;25.30;62.70
44477;DHT22;30180;44.788;10.366;2023-06-26T15:23:45;25.30;62.70
44477;DHT22;30180;44.788;10.366;2023-06-26T15:26:13;25.30;62.70
44477;DHT22;30180;44.788;10.366;2023-06-26T15:28:42;25.30;62.70
44477;DHT22;30180;44.788;10.366;2023-06-26T15:31:10;25.30;62.70